Latest Flight | Flight Log | Data Trends | ECTM | Login | Join FlightData.com!
Flight Info - N146HA (Eclipse E500 #550-0278)
Date
Origin
Dest
Depart
Arrive
Hobbs
Flight Time
Ground Time
Flight Distance
Taxi Distance
Fuel
Fuel/hr
Fuel/nm
Altitude
Gnd Speed
Wed, May 26, 2021 KJZP KGVL 15:23 15:45 0.36 hrs 0.23 hrs (0:14) 0.14 hrs (0:08) 39.98 nm 0.85 nm 130 lbs 359.17 lbs/hr 3.25 lbs/nm 4517 msl 172.34 kts
ACS Events (916) | DSU Summary (1)
Flight Track | Google Earth Export: 3D View, Cockpit View
NEXRAD Archive
Zoom In: Double click. Zoom Out: Double right-click.
Scroll Map: Left-click and drag. Show on graph: Click on track.
Graph | Increase Sample Rate (1 sec) |
Zoom In: Click and Drag to the right and down. Zoom Out: Click and Drag to the left.
Scroll Chart (while zoomed in): Hold right mouse-button.
More Flights - N146HA
Wed, Sep 30, 2020 KMCK KGVL 15:31 18:06 2.57 hrs 2.45 hrs 884.96 nm 1120.00 lbs 436.22 lbs/hr 1.27 lbs/nm 39021 msl 360 kts
Cruise 16:14:09 17:33:51   1h 19m 465.01 nm 519.49 lbs 391 lbs/h 1.12 lbs/nm 39001 feet 397 kts    
Wed, Apr 15, 2020 KLZU KAPF 16:01 18:01 1.99 hrs 1.78 hrs 510.68 nm 875.00 lbs 439.82 lbs/hr 1.71 lbs/nm 41047 msl 285 kts
Cruise 16:37:53 16:42:00   4m 07s 24.18 nm 30.1 lbs 437 lbs/h 1.24 lbs/nm 34007 feet 364 kts    
Cruise 16:51:01 17:02:58   11m 57s 69.81 nm 80.18 lbs 402 lbs/h 1.15 lbs/nm 38004 feet 355 kts    
Cruise 17:09:05 17:14:48   5m 43s 33.25 nm 40.13 lbs 420 lbs/h 1.21 lbs/nm 40998 feet 337 kts    
Mon, Jun 1, 2020 KLCH KLCH 18:11 20:17 2.07 hrs 1.77 hrs 306.47 nm 935.00 lbs 451.93 lbs/hr 3.05 lbs/nm 8244 msl 172 kts
Cruise 19:25:48 19:27:06   1m 18s 4.89 nm 15.19 lbs 692 lbs/h 3.11 lbs/nm 2500 feet 216 kts    
Mon, Jun 1, 2020 KLCH KAPA 21:03 23:46 2.71 hrs 2.49 hrs 827.50 nm 1175.00 lbs 433.58 lbs/hr 1.42 lbs/nm 38055 msl 331 kts
Cruise 21:47:16 21:54:14   6m 58s 40.15 nm 50.16 lbs 431 lbs/h 1.25 lbs/nm 34003 feet 353 kts    
Cruise 22:02:45 23:18:03   1h 15m 446.88 nm 509.64 lbs 406 lbs/h 1.14 lbs/nm 38001 feet 373 kts    
Sun, Sep 15, 2019 KLBF KGVL 14:46 17:39 2.86 hrs 2.74 hrs 908.99 nm 1150.00 lbs 402.22 lbs/hr 1.27 lbs/nm 41023 msl 330 kts
Cruise 15:28:37 15:32:31   3m 54s 22.78 nm 25.13 lbs 385 lbs/h 1.1 lbs/nm 40109 feet 363 kts    
Cruise 15:37:57 16:48:35   1h 10m 415.66 nm 435.68 lbs 370 lbs/h 1.05 lbs/nm 41001 feet 363 kts    
Cruise 16:55:24 17:09:54   14m 30s 85.41 nm 90 lbs 372 lbs/h 1.05 lbs/nm 38998 feet 372 kts    
Wed, Sep 18, 2019 KLBF 46U 15:11 17:04 1.86 hrs 1.62 hrs 486.20 nm 865.00 lbs 466.24 lbs/hr 1.78 lbs/nm 34023 msl 299 kts
Cruise 15:47:15 16:21:07   33m 52s 202.17 nm 260.34 lbs 461 lbs/h 1.29 lbs/nm 34001 feet 345 kts    
Wed, May 26, 2021 KJZP KGVL 15:23 15:45 0.36 hrs 0.23 hrs 39.98 nm 130.00 lbs 359.17 lbs/hr 3.25 lbs/nm 4517 msl 172 kts
Sat, Dec 26, 2020 KIXD 46U 17:59 21:25 3.41 hrs 3.17 hrs 861.57 nm 1485.00 lbs 435.06 lbs/hr 1.72 lbs/nm 38102 msl 270 kts
Cruise 18:40:42 18:49:51   9m 09s 54.85 nm 65.08 lbs 426 lbs/h 1.19 lbs/nm 38000 feet 302 kts    
Cruise 19:02:17 19:12:01   9m 44s 58.5 nm 70.2 lbs 432 lbs/h 1.2 lbs/nm 38001 feet 323 kts    
Cruise 19:36:57 19:43:36   6m 39s 40.22 nm 50.11 lbs 451 lbs/h 1.25 lbs/nm 38002 feet 308 kts    
Cruise 19:59:23 20:17:48   18m 25s 109.68 nm 125.04 lbs 407 lbs/h 1.14 lbs/nm 38001 feet 305 kts    
Wed, Jan 20, 2021 KHOT KAPA 02:27 05:23 2.91 hrs 2.8 hrs 674.43 nm 1295.00 lbs 444.76 lbs/hr 1.92 lbs/nm 40065 msl 239 kts
Cruise 03:03:56 04:25:20   1h 21m 481.72 nm 525.14 lbs 387 lbs/h 1.09 lbs/nm 40001 feet 244 kts    
Cruise 04:30:49 04:33:05   2m 16s 13.21 nm 15.11 lbs 397 lbs/h 1.14 lbs/nm 39999 feet 270 kts    
Cruise 04:43:55 04:52:03   8m 08s 49.31 nm 70.09 lbs 516 lbs/h 1.42 lbs/nm 31998 feet 265 kts    
Sun, Dec 20, 2020 KGVL KAPF 14:38 16:31 1.87 hrs 1.75 hrs 524.21 nm 975.00 lbs 520.69 lbs/hr 1.86 lbs/nm 34052 msl 297 kts
Cruise 15:10:55 15:41:30   30m 35s 182.58 nm 240.21 lbs 471 lbs/h 1.32 lbs/nm 34000 feet 335 kts    
Cruise 15:57:09 15:59:27   2m 18s 13.48 nm 20.16 lbs 522 lbs/h 1.5 lbs/nm 26994 feet 342 kts    
Sat, Dec 26, 2020 KGVL KIXD 15:02 17:36 2.54 hrs 2.33 hrs 681.36 nm 1150.00 lbs 453.20 lbs/hr 1.69 lbs/nm 38044 msl 291 kts
Cruise 15:41:07 15:46:43   5m 36s 33.61 nm 35.1 lbs 375 lbs/h 1.04 lbs/nm 38001 feet 326 kts    
Cruise 15:54:57 17:03:42   1h 08m 412.6 nm 480.22 lbs 419 lbs/h 1.16 lbs/nm 38001 feet 314 kts    
Wed, Jan 13, 2021 KGVL KAPF 15:59 18:00 2 hrs 1.82 hrs 547.37 nm 1040.00 lbs 520.58 lbs/hr 1.90 lbs/nm 34051 msl 300 kts
Cruise 16:33:37 17:01:27   27m 50s 169.89 nm 230.23 lbs 496 lbs/h 1.36 lbs/nm 34000 feet 346 kts    
Cruise 17:07:14 17:17:04   9m 50s 58.44 nm 75.19 lbs 458 lbs/h 1.29 lbs/nm 32998 feet 356 kts    
Thu, Jan 28, 2021 KGVL KAPF 17:34 19:18 1.72 hrs 1.57 hrs 543.83 nm 890.00 lbs 517.02 lbs/hr 1.64 lbs/nm 34038 msl 345 kts
Cruise 18:06:33 18:26:22   19m 49s 119 nm 155.03 lbs 469 lbs/h 1.3 lbs/nm 34001 feet 409 kts    
Cruise 18:31:56 18:39:45   7m 49s 46.61 nm 60.19 lbs 461 lbs/h 1.29 lbs/nm 32997 feet 393 kts    
Complete Flight Log (143)
FlightData.com is sponsored by AEROCOR